sensor_id;sensor_type;location;lat;lon;timestamp;P1;durP1;ratioP1;P2;durP2;ratioP2
67867;SDS011;54672;46.096;14.470;2023-06-22T00:01:47;17.88;;;7.88;;
67867;SDS011;54672;46.096;14.470;2023-06-22T00:04:12;11.02;;;6.95;;
67867;SDS011;54672;46.096;14.470;2023-06-22T00:06:38;12.32;;;7.45;;
67867;SDS011;54672;46.096;14.470;2023-06-22T00:09:03;14.18;;;7.15;;
67867;SDS011;54672;46.096;14.470;2023-06-22T00:11:29;13.13;;;7.15;;
67867;SDS011;54672;46.096;14.470;2023-06-22T00:13:54;15.77;;;7.45;;
67867;SDS011;54672;46.096;14.470;2023-06-22T00:16:19;13.13;;;7.95;;
67867;SDS011;54672;46.096;14.470;2023-06-22T00:18:45;13.35;;;7.20;;
67867;SDS011;54672;46.096;14.470;2023-06-22T00:21:12;11.10;;;7.45;;
67867;SDS011;54672;46.096;14.470;2023-06-22T00:23:37;11.57;;;7.43;;
67867;SDS011;54672;46.096;14.470;2023-06-22T00:26:03;12.02;;;6.95;;
67867;SDS011;54672;46.096;14.470;2023-06-22T00:28:28;14.07;;;7.35;;
67867;SDS011;54672;46.096;14.470;2023-06-22T00:30:54;17.23;;;7.05;;
67867;SDS011;54672;46.096;14.470;2023-06-22T00:33:19;13.80;;;6.93;;
67867;SDS011;54672;46.096;14.470;2023-06-22T00:35:45;11.10;;;7.18;;
67867;SDS011;54672;46.096;14.470;2023-06-22T00:38:10;12.23;;;7.63;;
67867;SDS011;54672;46.096;14.470;2023-06-22T00:40:36;14.57;;;7.03;;
67867;SDS011;54672;46.096;14.470;2023-06-22T00:43:02;11.00;;;6.97;;
67867;SDS011;54672;46.096;14.470;2023-06-22T00:45:28;13.43;;;7.50;;
67867;SDS011;54672;46.096;14.470;2023-06-22T00:47:54;11.20;;;6.72;;
67867;SDS011;54672;46.096;14.470;2023-06-22T00:50:21;16.90;;;7.55;;
67867;SDS011;54672;46.096;14.470;2023-06-22T00:52:52;13.52;;;7.15;;
67867;SDS011;54672;46.096;14.470;2023-06-22T00:55:22;11.70;;;7.05;;
67867;SDS011;54672;46.096;14.470;2023-06-22T00:57:48;14.80;;;7.65;;
67867;SDS011;54672;46.096;14.470;2023-06-22T01:00:14;16.67;;;7.15;;
67867;SDS011;54672;46.096;14.470;2023-06-22T01:02:44;13.30;;;7.38;;
67867;SDS011;54672;46.096;14.470;2023-06-22T01:05:12;12.38;;;7.70;;
67867;SDS011;54672;46.096;14.470;2023-06-22T01:15:45;12.90;;;7.90;;
67867;SDS011;54672;46.096;14.470;2023-06-22T01:18:14;11.15;;;7.55;;
67867;SDS011;54672;46.096;14.470;2023-06-22T01:20:42;12.43;;;6.88;;
67867;SDS011;54672;46.096;14.470;2023-06-22T01:23:17;13.30;;;7.10;;
67867;SDS011;54672;46.096;14.470;2023-06-22T01:28:45;19.73;;;7.63;;
67867;SDS011;54672;46.096;14.470;2023-06-22T01:31:12;12.95;;;7.38;;
67867;SDS011;54672;46.096;14.470;2023-06-22T01:33:41;11.82;;;7.55;;
67867;SDS011;54672;46.096;14.470;2023-06-22T01:36:08;16.50;;;8.75;;
67867;SDS011;54672;46.096;14.470;2023-06-22T01:38:34;15.50;;;8.88;;
67867;SDS011;54672;46.096;14.470;2023-06-22T01:41:01;14.25;;;8.45;;
67867;SDS011;54672;46.096;14.470;2023-06-22T01:43:27;16.80;;;8.88;;
67867;SDS011;54672;46.096;14.470;2023-06-22T01:46:00;12.65;;;8.13;;
67867;SDS011;54672;46.096;14.470;2023-06-22T01:48:26;15.73;;;8.80;;
67867;SDS011;54672;46.096;14.470;2023-06-22T01:50:52;15.57;;;8.73;;
67867;SDS011;54672;46.096;14.470;2023-06-22T01:53:20;14.35;;;8.75;;
67867;SDS011;54672;46.096;14.470;2023-06-22T01:55:46;18.17;;;8.52;;
67867;SDS011;54672;46.096;14.470;2023-06-22T01:58:12;19.63;;;8.70;;
67867;SDS011;54672;46.096;14.470;2023-06-22T02:00:38;14.13;;;8.48;;
67867;SDS011;54672;46.096;14.470;2023-06-22T02:03:08;13.02;;;8.48;;
67867;SDS011;54672;46.096;14.470;2023-06-22T02:05:43;13.57;;;8.80;;
67867;SDS011;54672;46.096;14.470;2023-06-22T02:08:38;15.85;;;8.98;;
67867;SDS011;54672;46.096;14.470;2023-06-22T02:11:07;14.20;;;9.15;;
67867;SDS011;54672;46.096;14.470;2023-06-22T02:13:35;14.38;;;8.77;;
67867;SDS011;54672;46.096;14.470;2023-06-22T02:16:02;15.65;;;9.25;;
67867;SDS011;54672;46.096;14.470;2023-06-22T02:18:28;19.25;;;9.18;;
67867;SDS011;54672;46.096;14.470;2023-06-22T02:20:54;14.48;;;8.98;;
67867;SDS011;54672;46.096;14.470;2023-06-22T02:23:19;19.08;;;9.52;;
67867;SDS011;54672;46.096;14.470;2023-06-22T02:25:44;16.17;;;9.25;;
67867;SDS011;54672;46.096;14.470;2023-06-22T02:28:10;19.58;;;8.38;;
67867;SDS011;54672;46.096;14.470;2023-06-22T02:30:36;17.58;;;8.13;;
67867;SDS011;54672;46.096;14.470;2023-06-22T02:33:01;14.65;;;8.40;;
67867;SDS011;54672;46.096;14.470;2023-06-22T02:35:27;13.18;;;8.27;;
67867;SDS011;54672;46.096;14.470;2023-06-22T02:38:00;15.32;;;8.65;;
67867;SDS011;54672;46.096;14.470;2023-06-22T02:40:27;12.90;;;8.18;;
67867;SDS011;54672;46.096;14.470;2023-06-22T02:42:54;13.32;;;8.57;;
67867;SDS011;54672;46.096;14.470;2023-06-22T02:45:19;17.30;;;9.32;;
67867;SDS011;54672;46.096;14.470;2023-06-22T02:47:45;14.73;;;8.65;;
67867;SDS011;54672;46.096;14.470;2023-06-22T02:50:12;13.02;;;7.70;;
67867;SDS011;54672;46.096;14.470;2023-06-22T02:52:38;13.88;;;8.05;;
67867;SDS011;54672;46.096;14.470;2023-06-22T02:55:04;12.15;;;8.25;;
67867;SDS011;54672;46.096;14.470;2023-06-22T02:57:30;16.48;;;8.65;;
67867;SDS011;54672;46.096;14.470;2023-06-22T02:59:55;13.43;;;7.72;;
67867;SDS011;54672;46.096;14.470;2023-06-22T03:02:21;12.50;;;8.00;;
67867;SDS011;54672;46.096;14.470;2023-06-22T03:04:46;15.13;;;7.97;;
67867;SDS011;54672;46.096;14.470;2023-06-22T03:07:13;16.38;;;9.57;;
67867;SDS011;54672;46.096;14.470;2023-06-22T03:09:39;16.85;;;9.10;;
67867;SDS011;54672;46.096;14.470;2023-06-22T03:12:04;19.05;;;9.07;;
67867;SDS011;54672;46.096;14.470;2023-06-22T03:14:30;18.10;;;9.80;;
67867;SDS011;54672;46.096;14.470;2023-06-22T03:16:55;24.40;;;9.23;;
67867;SDS011;54672;46.096;14.470;2023-06-22T03:19:26;16.83;;;9.05;;
67867;SDS011;54672;46.096;14.470;2023-06-22T03:21:53;20.90;;;9.80;;
67867;SDS011;54672;46.096;14.470;2023-06-22T03:24:18;14.90;;;9.20;;
67867;SDS011;54672;46.096;14.470;2023-06-22T03:26:45;18.77;;;10.07;;
67867;SDS011;54672;46.096;14.470;2023-06-22T03:29:11;19.45;;;9.70;;
67867;SDS011;54672;46.096;14.470;2023-06-22T03:31:37;17.55;;;8.52;;
67867;SDS011;54672;46.096;14.470;2023-06-22T03:34:02;20.67;;;9.60;;
67867;SDS011;54672;46.096;14.470;2023-06-22T03:36:28;19.63;;;9.35;;
67867;SDS011;54672;46.096;14.470;2023-06-22T03:38:53;16.27;;;9.02;;
67867;SDS011;54672;46.096;14.470;2023-06-22T03:41:19;15.90;;;9.05;;
67867;SDS011;54672;46.096;14.470;2023-06-22T03:43:44;14.18;;;9.07;;
67867;SDS011;54672;46.096;14.470;2023-06-22T03:46:10;16.88;;;8.95;;
67867;SDS011;54672;46.096;14.470;2023-06-22T03:48:35;16.00;;;9.30;;
67867;SDS011;54672;46.096;14.470;2023-06-22T03:51:01;18.17;;;9.40;;
67867;SDS011;54672;46.096;14.470;2023-06-22T03:53:28;20.45;;;9.60;;
67867;SDS011;54672;46.096;14.470;2023-06-22T03:55:53;16.73;;;9.77;;
67867;SDS011;54672;46.096;14.470;2023-06-22T03:58:19;15.85;;;9.23;;
67867;SDS011;54672;46.096;14.470;2023-06-22T04:00:46;16.70;;;9.20;;
67867;SDS011;54672;46.096;14.470;2023-06-22T04:03:12;17.55;;;9.38;;
67867;SDS011;54672;46.096;14.470;2023-06-22T04:05:38;15.25;;;9.55;;
67867;SDS011;54672;46.096;14.470;2023-06-22T04:08:04;16.50;;;9.95;;
67867;SDS011;54672;46.096;14.470;2023-06-22T04:10:30;16.52;;;10.00;;
67867;SDS011;54672;46.096;14.470;2023-06-22T04:12:56;21.65;;;9.45;;
67867;SDS011;54672;46.096;14.470;2023-06-22T04:15:21;19.90;;;10.10;;
67867;SDS011;54672;46.096;14.470;2023-06-22T04:17:47;21.25;;;10.23;;
67867;SDS011;54672;46.096;14.470;2023-06-22T04:20:12;18.95;;;9.77;;
67867;SDS011;54672;46.096;14.470;2023-06-22T04:22:37;15.20;;;9.88;;
67867;SDS011;54672;46.096;14.470;2023-06-22T04:25:03;19.30;;;10.35;;
67867;SDS011;54672;46.096;14.470;2023-06-22T04:27:30;20.77;;;10.30;;
67867;SDS011;54672;46.096;14.470;2023-06-22T04:29:56;18.35;;;9.65;;
67867;SDS011;54672;46.096;14.470;2023-06-22T04:32:21;15.13;;;9.57;;
67867;SDS011;54672;46.096;14.470;2023-06-22T04:34:46;19.42;;;10.25;;
67867;SDS011;54672;46.096;14.470;2023-06-22T04:37:12;16.73;;;9.52;;
67867;SDS011;54672;46.096;14.470;2023-06-22T04:39:41;14.32;;;9.63;;
67867;SDS011;54672;46.096;14.470;2023-06-22T04:42:07;16.20;;;9.15;;
67867;SDS011;54672;46.096;14.470;2023-06-22T04:44:32;18.08;;;10.68;;
67867;SDS011;54672;46.096;14.470;2023-06-22T04:46:58;20.02;;;11.48;;
67867;SDS011;54672;46.096;14.470;2023-06-22T04:49:28;18.00;;;11.35;;
67867;SDS011;54672;46.096;14.470;2023-06-22T04:51:58;17.30;;;10.27;;
67867;SDS011;54672;46.096;14.470;2023-06-22T04:54:23;16.05;;;10.45;;
67867;SDS011;54672;46.096;14.470;2023-06-22T04:56:49;17.58;;;9.32;;
67867;SDS011;54672;46.096;14.470;2023-06-22T04:59:21;17.73;;;9.70;;
67867;SDS011;54672;46.096;14.470;2023-06-22T05:01:59;16.98;;;10.10;;
67867;SDS011;54672;46.096;14.470;2023-06-22T05:04:26;18.33;;;9.63;;
67867;SDS011;54672;46.096;14.470;2023-06-22T05:06:53;16.65;;;9.40;;
67867;SDS011;54672;46.096;14.470;2023-06-22T05:09:19;14.13;;;9.25;;
67867;SDS011;54672;46.096;14.470;2023-06-22T05:11:45;17.88;;;10.10;;
67867;SDS011;54672;46.096;14.470;2023-06-22T05:14:11;18.85;;;10.23;;
67867;SDS011;54672;46.096;14.470;2023-06-22T05:16:36;16.95;;;9.85;;
67867;SDS011;54672;46.096;14.470;2023-06-22T05:19:02;12.45;;;9.43;;
67867;SDS011;54672;46.096;14.470;2023-06-22T05:21:29;16.52;;;9.48;;
67867;SDS011;54672;46.096;14.470;2023-06-22T05:23:55;12.35;;;9.20;;
67867;SDS011;54672;46.096;14.470;2023-06-22T05:26:25;16.10;;;9.65;;
67867;SDS011;54672;46.096;14.470;2023-06-22T05:28:51;15.10;;;8.85;;
67867;SDS011;54672;46.096;14.470;2023-06-22T05:31:17;17.13;;;9.90;;
67867;SDS011;54672;46.096;14.470;2023-06-22T05:33:44;16.15;;;10.20;;
67867;SDS011;54672;46.096;14.470;2023-06-22T05:36:11;17.38;;;10.50;;
67867;SDS011;54672;46.096;14.470;2023-06-22T05:38:40;16.63;;;10.48;;
67867;SDS011;54672;46.096;14.470;2023-06-22T05:41:07;17.67;;;11.27;;
67867;SDS011;54672;46.096;14.470;2023-06-22T05:43:33;23.05;;;10.70;;
67867;SDS011;54672;46.096;14.470;2023-06-22T05:46:02;17.70;;;10.93;;
67867;SDS011;54672;46.096;14.470;2023-06-22T05:48:30;14.90;;;10.63;;
67867;SDS011;54672;46.096;14.470;2023-06-22T05:50:56;16.75;;;10.40;;
67867;SDS011;54672;46.096;14.470;2023-06-22T05:53:25;17.10;;;9.98;;
67867;SDS011;54672;46.096;14.470;2023-06-22T05:55:50;18.48;;;11.15;;
67867;SDS011;54672;46.096;14.470;2023-06-22T05:58:16;20.50;;;11.10;;
67867;SDS011;54672;46.096;14.470;2023-06-22T06:00:42;16.73;;;9.95;;
67867;SDS011;54672;46.096;14.470;2023-06-22T06:03:11;19.85;;;10.02;;
67867;SDS011;54672;46.096;14.470;2023-06-22T06:05:37;12.85;;;9.15;;
67867;SDS011;54672;46.096;14.470;2023-06-22T06:08:06;17.45;;;11.20;;
67867;SDS011;54672;46.096;14.470;2023-06-22T06:10:32;18.60;;;10.63;;
67867;SDS011;54672;46.096;14.470;2023-06-22T06:12:59;19.75;;;10.40;;
67867;SDS011;54672;46.096;14.470;2023-06-22T06:15:29;14.73;;;10.43;;
67867;SDS011;54672;46.096;14.470;2023-06-22T06:18:04;15.93;;;10.10;;
67867;SDS011;54672;46.096;14.470;2023-06-22T06:20:36;17.67;;;10.07;;
67867;SDS011;54672;46.096;14.470;2023-06-22T06:23:13;18.48;;;9.43;;
67867;SDS011;54672;46.096;14.470;2023-06-22T06:25:42;14.70;;;9.80;;
67867;SDS011;54672;46.096;14.470;2023-06-22T06:28:08;15.55;;;10.13;;
67867;SDS011;54672;46.096;14.470;2023-06-22T06:30:34;13.15;;;9.02;;
67867;SDS011;54672;46.096;14.470;2023-06-22T06:33:02;15.02;;;9.50;;
67867;SDS011;54672;46.096;14.470;2023-06-22T06:35:29;16.17;;;9.38;;
67867;SDS011;54672;46.096;14.470;2023-06-22T06:37:55;15.40;;;10.65;;
67867;SDS011;54672;46.096;14.470;2023-06-22T06:40:24;20.98;;;9.77;;
67867;SDS011;54672;46.096;14.470;2023-06-22T06:42:50;16.05;;;10.15;;
67867;SDS011;54672;46.096;14.470;2023-06-22T06:45:18;16.80;;;9.38;;
67867;SDS011;54672;46.096;14.470;2023-06-22T06:47:50;15.07;;;9.98;;
67867;SDS011;54672;46.096;14.470;2023-06-22T06:50:18;14.50;;;10.00;;
67867;SDS011;54672;46.096;14.470;2023-06-22T06:52:44;12.20;;;9.43;;
67867;SDS011;54672;46.096;14.470;2023-06-22T06:55:11;18.95;;;10.43;;
67867;SDS011;54672;46.096;14.470;2023-06-22T06:57:37;18.10;;;10.35;;
67867;SDS011;54672;46.096;14.470;2023-06-22T07:00:15;14.90;;;9.73;;
67867;SDS011;54672;46.096;14.470;2023-06-22T07:02:43;14.98;;;9.50;;
67867;SDS011;54672;46.096;14.470;2023-06-22T07:05:09;14.50;;;9.80;;
67867;SDS011;54672;46.096;14.470;2023-06-22T07:07:39;16.20;;;10.30;;
67867;SDS011;54672;46.096;14.470;2023-06-22T07:10:06;15.10;;;9.13;;
67867;SDS011;54672;46.096;14.470;2023-06-22T07:12:33;15.10;;;9.30;;
67867;SDS011;54672;46.096;14.470;2023-06-22T07:15:08;14.55;;;9.05;;
67867;SDS011;54672;46.096;14.470;2023-06-22T07:17:37;15.27;;;9.55;;
67867;SDS011;54672;46.096;14.470;2023-06-22T07:20:10;15.75;;;8.80;;
67867;SDS011;54672;46.096;14.470;2023-06-22T07:22:39;15.93;;;9.13;;
67867;SDS011;54672;46.096;14.470;2023-06-22T07:25:13;21.98;;;9.48;;
67867;SDS011;54672;46.096;14.470;2023-06-22T07:28:00;15.45;;;9.20;;
67867;SDS011;54672;46.096;14.470;2023-06-22T07:30:51;15.10;;;8.85;;
67867;SDS011;54672;46.096;14.470;2023-06-22T07:33:20;12.90;;;8.02;;
67867;SDS011;54672;46.096;14.470;2023-06-22T07:35:46;15.73;;;8.93;;
67867;SDS011;54672;46.096;14.470;2023-06-22T07:38:20;11.85;;;8.25;;
67867;SDS011;54672;46.096;14.470;2023-06-22T07:40:49;14.40;;;7.97;;
67867;SDS011;54672;46.096;14.470;2023-06-22T07:43:18;13.00;;;9.02;;
67867;SDS011;54672;46.096;14.470;2023-06-22T07:45:50;14.32;;;8.90;;
67867;SDS011;54672;46.096;14.470;2023-06-22T07:48:20;15.43;;;8.88;;
67867;SDS011;54672;46.096;14.470;2023-06-22T07:50:47;16.20;;;9.73;;
67867;SDS011;54672;46.096;14.470;2023-06-22T07:53:18;14.10;;;8.63;;
67867;SDS011;54672;46.096;14.470;2023-06-22T07:58:23;13.98;;;8.77;;
67867;SDS011;54672;46.096;14.470;2023-06-22T08:00:59;15.35;;;9.20;;
67867;SDS011;54672;46.096;14.470;2023-06-22T08:03:34;17.02;;;8.40;;
67867;SDS011;54672;46.096;14.470;2023-06-22T08:06:00;17.75;;;9.75;;
67867;SDS011;54672;46.096;14.470;2023-06-22T08:08:28;11.90;;;8.45;;
67867;SDS011;54672;46.096;14.470;2023-06-22T08:10:54;12.15;;;8.82;;
67867;SDS011;54672;46.096;14.470;2023-06-22T08:13:20;17.75;;;8.70;;
67867;SDS011;54672;46.096;14.470;2023-06-22T08:15:51;17.58;;;9.65;;
67867;SDS011;54672;46.096;14.470;2023-06-22T08:18:17;16.25;;;8.57;;
67867;SDS011;54672;46.096;14.470;2023-06-22T08:20:46;16.95;;;9.32;;
67867;SDS011;54672;46.096;14.470;2023-06-22T08:23:15;15.27;;;8.80;;
67867;SDS011;54672;46.096;14.470;2023-06-22T08:25:52;15.77;;;8.95;;
67867;SDS011;54672;46.096;14.470;2023-06-22T08:28:21;15.10;;;8.43;;
67867;SDS011;54672;46.096;14.470;2023-06-22T08:30:49;15.00;;;8.95;;
67867;SDS011;54672;46.096;14.470;2023-06-22T08:33:27;15.93;;;8.70;;
67867;SDS011;54672;46.096;14.470;2023-06-22T08:35:57;13.05;;;8.52;;
67867;SDS011;54672;46.096;14.470;2023-06-22T08:38:33;15.27;;;8.05;;
67867;SDS011;54672;46.096;14.470;2023-06-22T08:41:05;15.93;;;9.07;;
67867;SDS011;54672;46.096;14.470;2023-06-22T08:43:40;13.20;;;8.00;;
67867;SDS011;54672;46.096;14.470;2023-06-22T08:46:09;12.18;;;7.75;;
67867;SDS011;54672;46.096;14.470;2023-06-22T08:51:46;14.82;;;7.88;;
67867;SDS011;54672;46.096;14.470;2023-06-22T08:54:22;11.07;;;7.85;;
67867;SDS011;54672;46.096;14.470;2023-06-22T08:57:02;10.63;;;7.82;;
67867;SDS011;54672;46.096;14.470;2023-06-22T08:59:41;13.18;;;7.90;;
67867;SDS011;54672;46.096;14.470;2023-06-22T09:02:27;12.85;;;8.10;;
67867;SDS011;54672;46.096;14.470;2023-06-22T09:05:12;11.60;;;7.70;;
67867;SDS011;54672;46.096;14.470;2023-06-22T09:07:51;11.98;;;7.32;;
67867;SDS011;54672;46.096;14.470;2023-06-22T09:10:37;11.43;;;7.88;;
67867;SDS011;54672;46.096;14.470;2023-06-22T09:13:08;12.48;;;8.35;;
67867;SDS011;54672;46.096;14.470;2023-06-22T09:15:37;14.43;;;7.82;;
67867;SDS011;54672;46.096;14.470;2023-06-22T09:18:06;12.27;;;8.40;;
67867;SDS011;54672;46.096;14.470;2023-06-22T09:20:49;13.80;;;7.45;;
67867;SDS011;54672;46.096;14.470;2023-06-22T09:26:31;16.83;;;8.32;;
67867;SDS011;54672;46.096;14.470;2023-06-22T09:29:10;14.30;;;7.90;;
67867;SDS011;54672;46.096;14.470;2023-06-22T09:31:36;17.27;;;8.27;;
67867;SDS011;54672;46.096;14.470;2023-06-22T09:34:15;14.20;;;7.93;;
67867;SDS011;54672;46.096;14.470;2023-06-22T09:36:48;13.73;;;8.18;;
67867;SDS011;54672;46.096;14.470;2023-06-22T09:39:18;15.57;;;8.18;;
67867;SDS011;54672;46.096;14.470;2023-06-22T09:42:02;10.93;;;7.85;;
67867;SDS011;54672;46.096;14.470;2023-06-22T09:44:45;17.25;;;8.05;;
67867;SDS011;54672;46.096;14.470;2023-06-22T09:47:11;16.98;;;8.95;;
67867;SDS011;54672;46.096;14.470;2023-06-22T09:49:45;14.95;;;8.50;;
67867;SDS011;54672;46.096;14.470;2023-06-22T09:52:17;17.05;;;8.63;;
67867;SDS011;54672;46.096;14.470;2023-06-22T09:54:55;14.07;;;9.00;;
67867;SDS011;54672;46.096;14.470;2023-06-22T09:57:28;13.75;;;8.23;;
67867;SDS011;54672;46.096;14.470;2023-06-22T09:59:58;14.35;;;8.40;;
67867;SDS011;54672;46.096;14.470;2023-06-22T10:02:30;14.93;;;8.15;;
67867;SDS011;54672;46.096;14.470;2023-06-22T10:04:57;15.75;;;8.60;;
67867;SDS011;54672;46.096;14.470;2023-06-22T10:07:34;15.43;;;8.40;;
67867;SDS011;54672;46.096;14.470;2023-06-22T10:10:16;12.95;;;8.38;;
67867;SDS011;54672;46.096;14.470;2023-06-22T10:12:46;14.93;;;8.32;;
67867;SDS011;54672;46.096;14.470;2023-06-22T10:15:23;16.73;;;8.45;;
67867;SDS011;54672;46.096;14.470;2023-06-22T10:17:55;14.07;;;8.10;;
67867;SDS011;54672;46.096;14.470;2023-06-22T10:20:21;15.05;;;8.40;;
67867;SDS011;54672;46.096;14.470;2023-06-22T10:22:53;15.38;;;8.70;;
67867;SDS011;54672;46.096;14.470;2023-06-22T10:25:27;14.70;;;8.70;;
67867;SDS011;54672;46.096;14.470;2023-06-22T10:28:10;14.85;;;8.38;;
67867;SDS011;54672;46.096;14.470;2023-06-22T10:30:41;12.50;;;7.80;;
67867;SDS011;54672;46.096;14.470;2023-06-22T10:33:21;15.68;;;8.18;;
67867;SDS011;54672;46.096;14.470;2023-06-22T10:35:47;15.73;;;8.73;;
67867;SDS011;54672;46.096;14.470;2023-06-22T10:38:13;13.63;;;9.13;;
67867;SDS011;54672;46.096;14.470;2023-06-22T10:40:38;15.73;;;9.15;;
67867;SDS011;54672;46.096;14.470;2023-06-22T10:43:04;17.02;;;9.25;;
67867;SDS011;54672;46.096;14.470;2023-06-22T10:45:30;18.88;;;9.05;;
67867;SDS011;54672;46.096;14.470;2023-06-22T10:47:55;15.30;;;8.95;;
67867;SDS011;54672;46.096;14.470;2023-06-22T10:50:21;14.70;;;9.15;;
67867;SDS011;54672;46.096;14.470;2023-06-22T10:52:48;16.80;;;8.60;;
67867;SDS011;54672;46.096;14.470;2023-06-22T10:55:14;13.55;;;7.28;;
67867;SDS011;54672;46.096;14.470;2023-06-22T10:57:39;13.80;;;7.80;;
67867;SDS011;54672;46.096;14.470;2023-06-22T11:00:08;15.32;;;8.13;;
67867;SDS011;54672;46.096;14.470;2023-06-22T11:02:34;15.80;;;8.20;;
67867;SDS011;54672;46.096;14.470;2023-06-22T11:04:59;14.82;;;8.55;;
67867;SDS011;54672;46.096;14.470;2023-06-22T11:07:28;14.95;;;8.95;;
67867;SDS011;54672;46.096;14.470;2023-06-22T11:09:54;15.65;;;8.77;;
67867;SDS011;54672;46.096;14.470;2023-06-22T11:12:20;15.82;;;9.02;;
67867;SDS011;54672;46.096;14.470;2023-06-22T11:14:45;13.13;;;8.73;;
67867;SDS011;54672;46.096;14.470;2023-06-22T11:17:11;14.18;;;8.88;;
67867;SDS011;54672;46.096;14.470;2023-06-22T11:19:36;13.20;;;8.27;;
67867;SDS011;54672;46.096;14.470;2023-06-22T11:22:02;10.63;;;7.57;;
67867;SDS011;54672;46.096;14.470;2023-06-22T11:24:27;13.68;;;7.80;;
67867;SDS011;54672;46.096;14.470;2023-06-22T11:26:52;13.68;;;8.10;;
67867;SDS011;54672;46.096;14.470;2023-06-22T11:29:18;14.38;;;8.18;;
67867;SDS011;54672;46.096;14.470;2023-06-22T11:31:43;12.25;;;7.72;;
67867;SDS011;54672;46.096;14.470;2023-06-22T11:34:09;11.15;;;7.45;;
67867;SDS011;54672;46.096;14.470;2023-06-22T11:36:34;10.40;;;6.72;;
67867;SDS011;54672;46.096;14.470;2023-06-22T11:39:00;13.90;;;7.20;;
67867;SDS011;54672;46.096;14.470;2023-06-22T11:41:26;15.52;;;7.45;;
67867;SDS011;54672;46.096;14.470;2023-06-22T11:43:51;11.95;;;7.80;;
67867;SDS011;54672;46.096;14.470;2023-06-22T11:46:16;17.08;;;7.50;;
67867;SDS011;54672;46.096;14.470;2023-06-22T11:48:42;12.93;;;7.32;;
67867;SDS011;54672;46.096;14.470;2023-06-22T11:51:07;19.08;;;7.35;;
67867;SDS011;54672;46.096;14.470;2023-06-22T11:53:33;13.05;;;7.25;;
67867;SDS011;54672;46.096;14.470;2023-06-22T11:55:59;11.48;;;6.88;;
67867;SDS011;54672;46.096;14.470;2023-06-22T11:58:26;11.68;;;7.18;;
67867;SDS011;54672;46.096;14.470;2023-06-22T12:00:51;13.00;;;7.38;;
67867;SDS011;54672;46.096;14.470;2023-06-22T12:03:17;11.40;;;6.57;;
67867;SDS011;54672;46.096;14.470;2023-06-22T12:05:42;11.13;;;7.13;;
67867;SDS011;54672;46.096;14.470;2023-06-22T12:08:08;12.70;;;7.57;;
67867;SDS011;54672;46.096;14.470;2023-06-22T12:10:34;10.30;;;7.50;;
67867;SDS011;54672;46.096;14.470;2023-06-22T12:12:59;11.82;;;7.43;;
67867;SDS011;54672;46.096;14.470;2023-06-22T12:15:25;11.93;;;6.97;;
67867;SDS011;54672;46.096;14.470;2023-06-22T12:17:51;13.73;;;7.00;;
67867;SDS011;54672;46.096;14.470;2023-06-22T12:20:16;13.50;;;7.18;;
67867;SDS011;54672;46.096;14.470;2023-06-22T12:22:42;11.32;;;6.65;;
67867;SDS011;54672;46.096;14.470;2023-06-22T12:25:08;13.80;;;7.00;;
67867;SDS011;54672;46.096;14.470;2023-06-22T12:27:34;16.25;;;7.72;;
67867;SDS011;54672;46.096;14.470;2023-06-22T12:30:00;12.70;;;7.10;;
67867;SDS011;54672;46.096;14.470;2023-06-22T12:32:26;15.18;;;7.20;;
67867;SDS011;54672;46.096;14.470;2023-06-22T12:34:51;13.88;;;7.00;;
67867;SDS011;54672;46.096;14.470;2023-06-22T12:37:17;13.88;;;6.75;;
67867;SDS011;54672;46.096;14.470;2023-06-22T12:39:43;16.13;;;7.38;;
67867;SDS011;54672;46.096;14.470;2023-06-22T12:42:08;15.88;;;7.05;;
67867;SDS011;54672;46.096;14.470;2023-06-22T12:44:35;14.18;;;6.40;;
67867;SDS011;54672;46.096;14.470;2023-06-22T12:47:00;13.88;;;6.38;;
67867;SDS011;54672;46.096;14.470;2023-06-22T12:49:26;12.18;;;6.28;;
67867;SDS011;54672;46.096;14.470;2023-06-22T12:51:51;14.23;;;6.70;;
67867;SDS011;54672;46.096;14.470;2023-06-22T12:54:16;13.88;;;7.50;;
67867;SDS011;54672;46.096;14.470;2023-06-22T12:56:42;16.50;;;7.32;;
67867;SDS011;54672;46.096;14.470;2023-06-22T12:59:10;12.27;;;6.95;;
67867;SDS011;54672;46.096;14.470;2023-06-22T13:01:35;15.25;;;6.82;;
67867;SDS011;54672;46.096;14.470;2023-06-22T13:04:02;19.25;;;7.40;;
67867;SDS011;54672;46.096;14.470;2023-06-22T13:06:28;13.35;;;7.25;;
67867;SDS011;54672;46.096;14.470;2023-06-22T13:08:54;15.30;;;7.47;;
67867;SDS011;54672;46.096;14.470;2023-06-22T13:11:19;13.02;;;7.57;;
67867;SDS011;54672;46.096;14.470;2023-06-22T13:13:45;15.43;;;8.00;;
67867;SDS011;54672;46.096;14.470;2023-06-22T13:16:11;17.17;;;8.63;;
67867;SDS011;54672;46.096;14.470;2023-06-22T13:18:38;12.52;;;8.73;;
67867;SDS011;54672;46.096;14.470;2023-06-22T13:21:04;17.58;;;9.30;;
67867;SDS011;54672;46.096;14.470;2023-06-22T13:23:30;15.30;;;8.40;;
67867;SDS011;54672;46.096;14.470;2023-06-22T13:25:55;18.58;;;8.85;;
67867;SDS011;54672;46.096;14.470;2023-06-22T13:28:21;12.13;;;9.40;;
67867;SDS011;54672;46.096;14.470;2023-06-22T13:30:47;13.93;;;8.65;;
67867;SDS011;54672;46.096;14.470;2023-06-22T13:33:13;18.25;;;9.65;;
67867;SDS011;54672;46.096;14.470;2023-06-22T13:35:39;13.73;;;9.50;;
67867;SDS011;54672;46.096;14.470;2023-06-22T13:38:04;16.50;;;9.48;;
67867;SDS011;54672;46.096;14.470;2023-06-22T13:40:30;13.73;;;9.10;;
67867;SDS011;54672;46.096;14.470;2023-06-22T13:42:56;11.88;;;9.60;;
67867;SDS011;54672;46.096;14.470;2023-06-22T13:45:22;15.82;;;9.82;;
67867;SDS011;54672;46.096;14.470;2023-06-22T13:47:47;16.08;;;10.05;;
67867;SDS011;54672;46.096;14.470;2023-06-22T13:50:13;17.92;;;9.80;;
67867;SDS011;54672;46.096;14.470;2023-06-22T13:52:38;19.10;;;9.73;;
67867;SDS011;54672;46.096;14.470;2023-06-22T13:55:04;13.02;;;9.23;;
67867;SDS011;54672;46.096;14.470;2023-06-22T13:57:31;15.38;;;10.00;;
67867;SDS011;54672;46.096;14.470;2023-06-22T13:59:57;15.73;;;10.10;;
67867;SDS011;54672;46.096;14.470;2023-06-22T14:02:23;15.80;;;10.40;;
67867;SDS011;54672;46.096;14.470;2023-06-22T14:04:48;13.48;;;10.02;;
67867;SDS011;54672;46.096;14.470;2023-06-22T14:07:13;14.55;;;10.40;;
67867;SDS011;54672;46.096;14.470;2023-06-22T14:09:39;14.25;;;10.05;;
67867;SDS011;54672;46.096;14.470;2023-06-22T14:12:05;14.45;;;10.85;;
67867;SDS011;54672;46.096;14.470;2023-06-22T14:14:32;16.40;;;11.15;;
67867;SDS011;54672;46.096;14.470;2023-06-22T14:16:58;17.70;;;11.18;;
67867;SDS011;54672;46.096;14.470;2023-06-22T14:19:24;15.95;;;10.63;;
67867;SDS011;54672;46.096;14.470;2023-06-22T14:21:49;17.33;;;11.30;;
67867;SDS011;54672;46.096;14.470;2023-06-22T14:24:15;14.32;;;10.80;;
67867;SDS011;54672;46.096;14.470;2023-06-22T14:26:40;16.88;;;10.88;;
67867;SDS011;54672;46.096;14.470;2023-06-22T14:29:06;15.93;;;10.70;;
67867;SDS011;54672;46.096;14.470;2023-06-22T14:31:31;14.52;;;10.73;;
67867;SDS011;54672;46.096;14.470;2023-06-22T14:33:57;16.00;;;11.10;;
67867;SDS011;54672;46.096;14.470;2023-06-22T14:36:23;19.00;;;11.05;;
67867;SDS011;54672;46.096;14.470;2023-06-22T14:38:48;20.08;;;12.00;;
67867;SDS011;54672;46.096;14.470;2023-06-22T14:41:14;19.52;;;11.27;;
67867;SDS011;54672;46.096;14.470;2023-06-22T14:43:49;16.83;;;11.10;;